Time;durP1;ratioP1;P1;durP2;ratioP2;P2;SDS_P1;SDS_P2;PMS_P1;PMS_P2;Temp;Humidity;BMP_temperature;BMP_pressure;BME280_temperature;BME280_humidity;BME280_pressure;Samples;Min_cycle;Max_cycle;Signal;HPM_P1;HPM_P2
2021/12/21 00:01:32;;;;;;;21.60;8.77;;;-4.80;99.90;;;;;;5040962;28;20330;-68
2021/12/21 00:03:59;;;;;;;15.52;7.43;;;-4.80;99.90;;;;;;5058402;28;20380;-68
2021/12/21 00:06:27;;;;;;;14.70;6.95;;;-4.80;99.90;;;;;;5058369;28;20032;-68
2021/12/21 00:08:54;;;;;;;17.38;6.55;;;-4.80;99.90;;;;;;5057221;28;20036;-68
2021/12/21 00:11:22;;;;;;;14.10;6.72;;;-4.90;99.90;;;;;;5058209;28;20029;-68
2021/12/21 00:16:41;;;;;;;16.88;6.90;;;-4.90;99.90;;;;;;5058243;28;20456;-68
2021/12/21 00:19:24;;;;;;;16.42;6.47;;;-5.00;99.90;;;;;;5057926;28;20025;-68
2021/12/21 00:21:58;;;;;;;20.77;7.68;;;-5.00;99.90;;;;;;5058306;28;20048;-68
2021/12/21 00:24:32;;;;;;;16.50;7.30;;;-5.00;99.90;;;;;;5059311;28;20431;-68
2021/12/21 00:27:07;;;;;;;15.98;7.45;;;-5.00;99.90;;;;;;5059709;28;20087;-68
2021/12/21 00:29:36;;;;;;;14.27;7.22;;;-5.10;99.90;;;;;;5058832;28;20021;-68
2021/12/21 00:32:04;;;;;;;15.35;6.65;;;-5.10;99.90;;;;;;5057905;28;20037;-68
2021/12/21 00:34:32;;;;;;;17.95;7.22;;;-5.10;99.90;;;;;;5057799;28;20082;-68
2021/12/21 00:37:00;;;;;;;14.02;7.22;;;-5.10;99.90;;;;;;5058783;28;20294;-68
2021/12/21 00:39:27;;;;;;;15.00;7.00;;;-5.10;99.90;;;;;;5058685;28;20048;-68
2021/12/21 00:41:55;;;;;;;17.30;7.20;;;-5.10;99.90;;;;;;5058380;28;20060;-68
2021/12/21 00:44:23;;;;;;;14.93;6.78;;;-5.10;99.90;;;;;;5057200;28;20053;-68
2021/12/21 00:46:51;;;;;;;17.00;6.85;;;-5.20;99.90;;;;;;5057340;28;20089;-68
2021/12/21 00:49:20;;;;;;;15.23;7.00;;;-5.20;99.90;;;;;;5057598;28;20115;-68
2021/12/21 00:51:48;;;;;;;13.57;6.35;;;-5.20;99.90;;;;;;5057537;28;20110;-68
2021/12/21 00:54:16;;;;;;;15.75;7.65;;;-5.20;99.90;;;;;;5057513;28;20048;-68
2021/12/21 00:56:44;;;;;;;12.20;6.28;;;-5.30;99.90;;;;;;5057951;28;20045;-68
2021/12/21 00:59:12;;;;;;;15.63;6.60;;;-5.30;99.90;;;;;;5057463;28;20021;-68
2021/12/21 01:01:41;;;;;;;17.10;6.30;;;-5.30;99.90;;;;;;5057699;28;20169;-68
2021/12/21 01:04:19;;;;;;;13.95;6.53;;;-5.30;99.90;;;;;;5057517;28;20074;-69
2021/12/21 01:07:19;;;;;;;14.90;7.63;;;-5.30;99.90;;;;;;5058106;28;20035;-68
2021/12/21 01:15:20;;;;;;;16.80;7.07;;;-5.30;99.90;;;;;;5058538;28;20028;-68
2021/12/21 01:25:59;;;;;;;16.40;6.85;;;-5.40;99.90;;;;;;5057476;28;20032;-68
2021/12/21 01:28:46;;;;;;;19.38;8.13;;;-5.40;99.90;;;;;;5056832;28;20037;-68
2021/12/21 01:31:29;;;;;;;;;;;-5.40;99.90;;;;;;5057047;28;20036;-68
2021/12/21 01:34:19;;;;;;;13.48;6.20;;;-5.40;99.90;;;;;;5055893;28;20292;-68
2021/12/21 01:37:08;;;;;;;15.63;7.15;;;-5.40;99.90;;;;;;5057116;28;20032;-68
2021/12/21 01:39:58;;;;;;;14.15;6.15;;;-5.40;99.90;;;;;;5056797;28;20013;-68
2021/12/21 01:42:48;;;;;;;13.77;6.18;;;-5.40;99.90;;;;;;5056677;28;20028;-68
2021/12/21 01:50:56;;;;;;;15.52;6.68;;;-5.50;99.90;;;;;;5057804;28;20063;-68
2021/12/21 01:53:24;;;;;;;10.32;5.05;;;-5.50;99.90;;;;;;5057399;28;20025;-68
2021/12/21 01:55:52;;;;;;;10.52;4.65;;;-5.50;99.90;;;;;;5057040;28;20056;-68
2021/12/21 01:58:21;;;;;;;11.10;5.03;;;-5.50;99.90;;;;;;5057650;28;20018;-68
2021/12/21 02:00:49;;;;;;;10.85;5.70;;;-5.50;99.90;;;;;;5057407;28;20028;-68
2021/12/21 02:03:17;;;;;;;16.05;5.80;;;-5.60;99.90;;;;;;5057364;28;20060;-68
2021/12/21 02:05:45;;;;;;;16.38;6.70;;;-5.60;99.90;;;;;;5057583;28;20052;-68
2021/12/21 02:08:13;;;;;;;27.77;6.97;;;-5.60;99.90;;;;;;5057116;28;20027;-68
2021/12/21 02:10:41;;;;;;;22.70;5.93;;;-5.60;99.90;;;;;;5056357;28;20037;-68
2021/12/21 02:13:09;;;;;;;14.93;5.78;;;-5.60;99.90;;;;;;5056256;28;20064;-68
2021/12/21 02:15:36;;;;;;;17.27;5.20;;;-5.60;99.90;;;;;;5056262;28;20024;-68
2021/12/21 02:23:48;;;;;;;16.42;6.32;;;-5.40;99.90;;;;;;5042699;28;20326;-68
2021/12/21 02:29:14;;;;;;;18.90;6.07;;;-5.40;99.90;;;;;;5055869;28;20079;-68
2021/12/21 02:31:47;;;;;;;27.45;6.15;;;-5.40;99.90;;;;;;5056892;28;20020;-68
2021/12/21 02:34:16;;;;;;;24.02;5.57;;;-5.30;99.90;;;;;;5057024;28;20017;-68
2021/12/21 02:36:46;;;;;;;14.05;5.93;;;-5.30;99.90;;;;;;5057074;28;20056;-68
2021/12/21 02:39:15;;;;;;;20.75;5.70;;;-5.30;99.90;;;;;;5055883;28;20025;-68
2021/12/21 02:41:44;;;;;;;21.75;6.03;;;-5.20;99.90;;;;;;5056997;28;20044;-68
2021/12/21 02:44:12;;;;;;;33.33;5.88;;;-5.20;99.90;;;;;;5056892;28;20029;-68
2021/12/21 02:46:40;;;;;;;23.80;6.63;;;-5.20;99.90;;;;;;5056999;28;20025;-68
2021/12/21 02:49:09;;;;;;;15.35;5.00;;;-5.20;99.90;;;;;;5056896;28;20025;-68
2021/12/21 02:51:43;;;;;;;15.02;5.40;;;-5.10;99.90;;;;;;5056067;28;20020;-68
2021/12/21 02:54:12;;;;;;;31.33;6.88;;;-5.10;99.90;;;;;;5056534;28;20025;-68
2021/12/21 02:56:40;;;;;;;19.42;5.65;;;-5.10;99.90;;;;;;5055686;28;20126;-68
2021/12/21 02:59:08;;;;;;;21.10;6.00;;;-5.10;99.90;;;;;;5056528;28;20044;-68
2021/12/21 03:01:37;;;;;;;17.75;6.43;;;-5.10;99.90;;;;;;5055812;28;20025;-68
2021/12/21 03:04:07;;;;;;;17.00;6.28;;;-5.20;99.90;;;;;;5054963;28;20029;-68
2021/12/21 03:12:15;;;;;;;11.98;5.30;;;-5.20;99.90;;;;;;5059509;28;20025;-68
2021/12/21 03:14:43;;;;;;;33.40;6.35;;;-5.20;99.90;;;;;;5060313;28;20033;-68
2021/12/21 03:17:11;;;;;;;19.15;6.05;;;-5.30;99.90;;;;;;5042646;28;20353;-68
2021/12/21 03:19:39;;;;;;;22.45;5.82;;;-5.30;99.90;;;;;;5060831;28;20017;-68
2021/12/21 03:22:07;;;;;;;24.48;6.47;;;-5.30;99.90;;;;;;5059143;28;20420;-68
2021/12/21 03:24:36;;;;;;;24.38;6.82;;;-5.30;99.90;;;;;;5060505;28;20040;-68
2021/12/21 03:27:05;;;;;;;15.80;5.88;;;-5.30;99.90;;;;;;5060137;28;20017;-68
2021/12/21 03:29:33;;;;;;;29.63;7.05;;;-5.30;99.90;;;;;;5060121;28;20328;-68
2021/12/21 03:32:01;;;;;;;14.20;6.80;;;-5.30;99.90;;;;;;5060024;28;20302;-68
2021/12/21 03:34:29;;;;;;;21.73;8.00;;;-5.40;99.90;;;;;;5059143;28;20025;-68
2021/12/21 03:36:57;;;;;;;31.35;8.57;;;-5.40;99.90;;;;;;5059035;28;20017;-68
2021/12/21 03:39:24;;;;;;;16.67;7.50;;;-5.40;99.90;;;;;;5058948;28;20021;-68
2021/12/21 03:41:56;;;;;;;25.27;6.95;;;-5.40;99.90;;;;;;5058915;28;20080;-68
2021/12/21 03:44:26;;;;;;;26.98;7.60;;;-5.40;99.90;;;;;;5058862;28;20028;-68
2021/12/21 03:46:56;;;;;;;23.60;7.65;;;-5.40;99.90;;;;;;5058746;28;20033;-68
2021/12/21 03:52:16;;;;;;;21.42;7.60;;;-5.30;99.90;;;;;;5059052;28;20017;-68
2021/12/21 03:54:48;;;;;;;29.10;7.63;;;-5.30;99.90;;;;;;5058540;28;20045;-68
2021/12/21 03:57:16;;;;;;;35.08;8.45;;;-5.30;99.90;;;;;;5059375;28;20079;-68
2021/12/21 03:59:45;;;;;;;17.77;8.02;;;-5.30;99.90;;;;;;5059454;28;20416;-68
2021/12/21 04:02:13;;;;;;;41.75;8.63;;;-5.30;99.90;;;;;;5059455;28;20025;-68
2021/12/21 04:04:43;;;;;;;39.72;9.20;;;-5.20;99.90;;;;;;5059438;28;20056;-68
2021/12/21 04:07:11;;;;;;;31.67;9.90;;;-5.20;99.90;;;;;;5060071;28;20037;-68
2021/12/21 04:09:38;;;;;;;25.20;10.05;;;-5.20;99.90;;;;;;5059447;28;20155;-68
2021/12/21 04:12:06;;;;;;;51.95;10.10;;;-5.20;99.90;;;;;;5058848;28;20032;-68
2021/12/21 04:14:35;;;;;;;29.40;10.90;;;-5.20;99.90;;;;;;5059103;28;20029;-68
2021/12/21 04:17:03;;;;;;;36.22;9.75;;;-5.20;99.90;;;;;;5057677;28;20321;-68
2021/12/21 04:19:30;;;;;;;31.73;10.80;;;-5.20;99.90;;;;;;5056390;28;20025;-68
2021/12/21 04:21:58;;;;;;;26.98;10.27;;;-5.20;99.90;;;;;;5058158;28;20020;-68
2021/12/21 04:24:26;;;;;;;26.38;9.77;;;-5.30;99.90;;;;;;5057335;28;20321;-68
2021/12/21 04:26:54;;;;;;;24.98;11.05;;;-5.30;99.90;;;;;;5058017;28;20020;-68
2021/12/21 04:29:22;;;;;;;21.02;9.73;;;-5.40;99.90;;;;;;5058760;28;20029;-68
2021/12/21 04:31:49;;;;;;;27.55;10.98;;;-5.40;99.90;;;;;;5058041;28;20025;-68
2021/12/21 04:34:17;;;;;;;23.35;9.50;;;-5.40;99.90;;;;;;5057903;28;20097;-68
2021/12/21 04:36:45;;;;;;;24.70;9.88;;;-5.40;99.90;;;;;;5058482;28;20032;-68
2021/12/21 04:39:28;;;;;;;26.45;10.18;;;-5.50;99.90;;;;;;5058324;28;20409;-68
2021/12/21 04:41:56;;;;;;;24.23;10.60;;;-5.50;99.90;;;;;;5058894;28;20035;-68
2021/12/21 04:44:24;;;;;;;26.45;10.70;;;-5.50;99.90;;;;;;5058620;28;20111;-69
2021/12/21 04:46:52;;;;;;;21.48;8.85;;;-5.50;99.90;;;;;;5058623;28;20098;-68
2021/12/21 04:49:20;;;;;;;26.77;10.52;;;-5.60;99.90;;;;;;5058657;28;20039;-69
2021/12/21 04:51:47;;;;;;;25.85;9.82;;;-5.60;99.90;;;;;;5058517;28;20435;-68
2021/12/21 04:54:15;;;;;;;34.95;11.00;;;-5.60;99.90;;;;;;5058698;28;20025;-68
2021/12/21 04:56:43;;;;;;;28.38;11.27;;;-5.70;99.90;;;;;;5058167;28;20130;-68
2021/12/21 04:59:11;;;;;;;25.23;10.05;;;-5.70;99.90;;;;;;5058098;28;20025;-68
2021/12/21 05:01:39;;;;;;;27.00;8.68;;;-5.80;99.90;;;;;;5057705;28;20013;-68
2021/12/21 05:04:06;;;;;;;25.40;8.82;;;-5.80;99.90;;;;;;5057325;28;20060;-69
2021/12/21 05:06:34;;;;;;;19.13;9.18;;;-5.90;99.90;;;;;;5056197;28;20032;-68
2021/12/21 05:09:12;;;;;;;29.90;10.45;;;-5.90;99.90;;;;;;5056038;28;20365;-68
2021/12/21 05:11:43;;;;;;;28.42;9.82;;;-5.90;99.90;;;;;;5057502;28;20025;-68
2021/12/21 05:14:11;;;;;;;24.58;8.88;;;-5.90;99.90;;;;;;5057296;28;20029;-69
2021/12/21 05:16:40;;;;;;;20.60;7.95;;;-6.00;99.90;;;;;;5057144;28;20029;-68
2021/12/21 05:19:08;;;;;;;19.13;9.18;;;-6.00;99.90;;;;;;5057621;28;20021;-68
2021/12/21 05:21:35;;;;;;;22.40;10.05;;;-6.00;99.90;;;;;;5057891;28;20021;-68
2021/12/21 05:24:04;;;;;;;20.65;9.25;;;-6.10;99.90;;;;;;5057953;28;20104;-68
2021/12/21 05:26:31;;;;;;;21.55;8.48;;;-6.10;99.90;;;;;;5056816;28;20033;-68
2021/12/21 05:28:59;;;;;;;22.67;9.10;;;-6.10;99.90;;;;;;5057834;28;20048;-68
2021/12/21 05:31:27;;;;;;;19.85;6.97;;;-6.10;99.90;;;;;;5057605;28;20025;-68
2021/12/21 05:33:54;;;;;;;13.80;7.03;;;-6.10;99.90;;;;;;5058383;28;20033;-68
2021/12/21 05:36:22;;;;;;;18.25;7.15;;;-6.10;99.90;;;;;;5056874;28;20021;-68
2021/12/21 05:38:54;;;;;;;20.83;6.47;;;-6.20;99.90;;;;;;5057583;28;20029;-68
2021/12/21 05:41:28;;;;;;;14.60;6.28;;;-6.20;99.90;;;;;;5057763;28;20051;-68
2021/12/21 05:43:56;;;;;;;19.05;6.78;;;-6.20;99.90;;;;;;5056872;28;20051;-69
2021/12/21 05:46:24;;;;;;;12.68;7.13;;;-6.20;99.90;;;;;;5056606;28;20074;-68
2021/12/21 05:48:55;;;;;;;18.58;7.05;;;-6.20;99.90;;;;;;5056505;28;20029;-68
2021/12/21 05:51:23;;;;;;;22.40;9.15;;;-6.20;99.90;;;;;;5056444;28;20060;-69
2021/12/21 05:53:50;;;;;;;19.77;8.98;;;-6.20;99.90;;;;;;5056531;28;20025;-68
2021/12/21 05:56:17;;;;;;;26.48;10.93;;;-6.20;99.90;;;;;;5056340;28;20068;-68
2021/12/21 05:58:45;;;;;;;23.50;9.55;;;-6.20;99.90;;;;;;5057021;28;20346;-68
2021/12/21 06:01:13;;;;;;;23.08;10.10;;;-6.20;99.90;;;;;;5056345;28;20032;-68
2021/12/21 06:03:41;;;;;;;20.02;7.78;;;-6.20;99.90;;;;;;5057036;28;20039;-68
2021/12/21 06:06:13;;;;;;;15.35;7.15;;;-6.20;99.90;;;;;;5057101;28;20029;-68
2021/12/21 06:08:43;;;;;;;28.30;7.32;;;-6.20;99.90;;;;;;5057995;28;20017;-68
2021/12/21 06:11:12;;;;;;;24.00;7.45;;;-6.20;99.90;;;;;;5057765;28;20025;-68
2021/12/21 06:27:18;;;;;;;30.63;7.40;;;-6.10;99.90;;;;;;5056544;28;19904;-68
2021/12/21 06:29:46;;;;;;;18.15;7.70;;;-6.10;99.90;;;;;;5055260;28;20056;-68
2021/12/21 06:32:13;;;;;;;20.23;8.35;;;-6.10;99.90;;;;;;5056092;28;20017;-68
2021/12/21 06:34:41;;;;;;;18.60;7.85;;;-6.10;99.90;;;;;;5055527;28;20029;-68
2021/12/21 06:37:09;;;;;;;15.30;7.53;;;-6.00;99.90;;;;;;5055161;28;20074;-68
2021/12/21 06:39:37;;;;;;;19.60;8.43;;;-6.00;99.90;;;;;;5055598;28;20024;-68
2021/12/21 06:42:05;;;;;;;21.00;8.27;;;-6.00;99.90;;;;;;5056805;28;20104;-68
2021/12/21 06:44:34;;;;;;;18.67;8.90;;;-6.00;99.90;;;;;;5060544;28;20021;-68
2021/12/21 06:51:08;;;;;;;16.25;7.32;;;-5.90;99.90;;;;;;5059977;28;20057;-68
2021/12/21 06:52:40;;;;;;;16.33;7.05;;;-5.90;99.90;;;;;;5061202;28;20036;-68
2021/12/21 06:55:08;;;;;;;24.23;7.72;;;-5.90;99.90;;;;;;5060407;28;20132;-68
2021/12/21 06:57:37;;;;;;;23.02;7.22;;;-5.80;99.90;;;;;;5061115;28;20021;-68
2021/12/21 07:00:06;;;;;;;17.67;7.97;;;-5.80;99.90;;;;;;5059938;28;20033;-68
2021/12/21 07:02:33;;;;;;;17.52;8.57;;;-5.80;99.90;;;;;;5060184;28;20430;-68
2021/12/21 07:05:02;;;;;;;21.10;7.38;;;-5.80;99.90;;;;;;5060524;28;20318;-68
2021/12/21 07:07:30;;;;;;;19.52;7.68;;;-5.70;99.90;;;;;;5060329;28;20100;-68
2021/12/21 07:10:04;;;;;;;20.67;8.90;;;-5.70;99.90;;;;;;5059674;28;20060;-68
2021/12/21 07:18:09;;;;;;;28.42;8.25;;;-5.50;99.90;;;;;;5060080;28;20116;-68
2021/12/21 07:20:38;;;;;;;34.08;12.25;;;-5.50;99.90;;;;;;5059256;28;20048;-68
2021/12/21 07:23:05;;;;;;;33.25;15.35;;;-5.40;99.90;;;;;;5059591;28;20025;-68
2021/12/21 07:25:34;;;;;;;35.83;13.85;;;-5.40;99.90;;;;;;5059219;28;20075;-68
2021/12/21 07:28:01;;;;;;;33.10;11.45;;;-5.30;99.90;;;;;;5059342;28;20108;-74
2021/12/21 07:30:29;;;;;;;44.05;12.70;;;-5.30;99.90;;;;;;5059826;28;20021;-70
2021/12/21 07:32:57;;;;;;;48.55;12.80;;;-5.20;99.90;;;;;;5059979;28;20029;-68
2021/12/21 07:35:26;;;;;;;39.08;12.63;;;-5.20;99.90;;;;;;5060231;28;20049;-68
2021/12/21 07:37:54;;;;;;;37.53;11.07;;;-5.10;99.90;;;;;;5059862;28;20421;-68
2021/12/21 07:40:22;;;;;;;35.20;11.63;;;-5.10;99.90;;;;;;5059981;28;20025;-67
2021/12/21 07:42:49;;;;;;;34.53;11.38;;;-5.00;99.90;;;;;;5058798;28;20495;-68
2021/12/21 07:45:17;;;;;;;37.88;12.38;;;-5.00;99.90;;;;;;5060183;28;20076;-67
2021/12/21 07:47:45;;;;;;;31.20;13.38;;;-5.00;99.90;;;;;;5059913;28;20073;-67
2021/12/21 07:50:14;;;;;;;36.17;11.75;;;-4.90;99.90;;;;;;5059514;28;20025;-70
2021/12/21 07:52:42;;;;;;;36.15;12.02;;;-4.90;99.90;;;;;;5074302;28;20364;-70
2021/12/21 07:55:10;;;;;;;35.83;11.95;;;-4.90;99.90;;;;;;5058451;28;20049;-70
2021/12/21 07:57:37;;;;;;;48.58;11.57;;;-4.80;99.90;;;;;;5057699;28;20047;-70
2021/12/21 08:00:08;;;;;;;34.72;9.88;;;-4.80;99.90;;;;;;5058896;28;20368;-70
2021/12/21 08:02:35;;;;;;;29.33;10.05;;;-4.80;99.90;;;;;;5058338;28;20051;-70
2021/12/21 08:05:05;;;;;;;29.25;9.98;;;-4.70;99.90;;;;;;5058531;28;20024;-69
2021/12/21 08:07:39;;;;;;;24.83;9.10;;;-4.70;99.90;;;;;;5058360;28;20025;-70
2021/12/21 08:10:19;;;;;;;39.28;9.20;;;-4.60;99.90;;;;;;5058608;28;20376;-70
2021/12/21 08:12:49;;;;;;;39.30;9.93;;;-4.60;99.90;;;;;;5058458;28;20029;-70
2021/12/21 08:15:16;;;;;;;32.47;9.52;;;-4.50;99.90;;;;;;5059733;28;20399;-69
2021/12/21 08:17:45;;;;;;;37.38;10.30;;;-4.50;99.90;;;;;;5059282;28;20048;-69
2021/12/21 08:20:13;;;;;;;25.92;9.93;;;-4.50;99.90;;;;;;5059235;28;20020;-70
2021/12/21 08:22:41;;;;;;;38.65;11.15;;;-4.50;99.90;;;;;;5059675;28;20028;-71
2021/12/21 08:25:09;;;;;;;26.88;10.95;;;-4.40;99.90;;;;;;5059376;28;20115;-71
2021/12/21 08:27:37;;;;;;;28.50;10.90;;;-4.30;99.90;;;;;;5058971;28;20047;-70
2021/12/21 08:30:06;;;;;;;26.02;10.60;;;-4.30;99.90;;;;;;5059115;28;20484;-70
2021/12/21 08:32:33;;;;;;;26.52;11.07;;;-4.20;99.90;;;;;;5057650;28;20112;-71
2021/12/21 08:35:02;;;;;;;24.27;9.90;;;-4.20;99.90;;;;;;5057998;28;20337;-71
2021/12/21 08:37:29;;;;;;;24.23;10.88;;;-4.20;99.90;;;;;;5057958;28;20017;-74
2021/12/21 08:39:57;;;;;;;28.58;11.10;;;-4.20;99.90;;;;;;5057863;28;20024;-70
2021/12/21 08:42:26;;;;;;;23.48;11.02;;;-4.20;99.90;;;;;;5073480;28;20421;-69
2021/12/21 08:44:54;;;;;;;21.40;10.65;;;-4.10;99.90;;;;;;5057972;28;20029;-69
2021/12/21 08:47:22;;;;;;;26.30;10.68;;;-4.10;99.90;;;;;;5058349;28;20452;-70
2021/12/21 08:49:50;;;;;;;25.52;11.05;;;-4.10;99.90;;;;;;5057650;28;20101;-70
2021/12/21 08:52:18;;;;;;;25.55;10.57;;;-4.00;99.90;;;;;;5057554;28;20033;-70
2021/12/21 08:54:46;;;;;;;20.63;9.45;;;-4.00;99.90;;;;;;5057634;28;20056;-70
2021/12/21 08:57:15;;;;;;;20.05;9.43;;;-3.90;99.90;;;;;;5058639;28;20053;-69
2021/12/21 08:59:43;;;;;;;23.40;9.77;;;-3.90;99.90;;;;;;5058383;28;20025;-69
2021/12/21 09:02:12;;;;;;;19.80;8.70;;;-3.90;99.90;;;;;;5058420;28;20421;-69
2021/12/21 09:04:40;;;;;;;22.33;9.70;;;-3.90;99.90;;;;;;5057591;28;20103;-69
2021/12/21 09:07:09;;;;;;;18.52;9.52;;;-3.90;99.90;;;;;;5058012;28;20025;-69
2021/12/21 09:09:36;;;;;;;24.13;11.00;;;-3.90;99.90;;;;;;5058840;28;20095;-69
2021/12/21 09:12:04;;;;;;;21.77;9.98;;;-3.80;99.90;;;;;;5057738;28;20485;-69
2021/12/21 09:14:32;;;;;;;20.20;9.65;;;-3.80;99.90;;;;;;5058344;28;20033;-69
2021/12/21 09:17:00;;;;;;;22.30;10.32;;;-3.80;99.90;;;;;;5057488;28;20056;-69
2021/12/21 09:19:28;;;;;;;23.02;10.25;;;-3.80;99.90;;;;;;5057292;28;20075;-68
2021/12/21 09:21:57;;;;;;;20.20;9.70;;;-3.90;99.90;;;;;;5057259;28;20071;-68
2021/12/21 09:24:25;;;;;;;18.55;9.52;;;-3.90;99.90;;;;;;5056925;28;20413;-70
2021/12/21 09:26:52;;;;;;;25.48;11.25;;;-3.90;99.90;;;;;;5057210;28;20102;-70
2021/12/21 09:29:20;;;;;;;24.17;10.02;;;-3.80;99.90;;;;;;5057666;28;20021;-69
2021/12/21 09:31:50;;;;;;;20.00;9.73;;;-3.80;99.90;;;;;;5056873;28;20025;-69
2021/12/21 09:34:17;;;;;;;20.35;10.48;;;-3.80;99.90;;;;;;5057344;28;20036;-69
2021/12/21 09:36:45;;;;;;;19.45;9.63;;;-3.70;99.90;;;;;;5056803;28;20096;-69
2021/12/21 09:39:13;;;;;;;20.00;10.10;;;-3.70;99.90;;;;;;5057500;28;20021;-69
2021/12/21 09:41:41;;;;;;;23.45;10.45;;;-3.70;99.90;;;;;;5040083;28;20028;-69
2021/12/21 09:44:10;;;;;;;18.40;9.18;;;-3.70;99.90;;;;;;5057489;28;20036;-70
2021/12/21 09:46:38;;;;;;;20.73;10.20;;;-3.70;99.90;;;;;;5057572;28;20103;-69
2021/12/21 09:49:05;;;;;;;19.10;10.40;;;-3.60;99.90;;;;;;5058267;28;20103;-69
2021/12/21 09:51:33;;;;;;;24.33;10.93;;;-3.60;99.90;;;;;;5057469;28;20043;-69
2021/12/21 09:54:01;;;;;;;23.73;10.98;;;-3.60;99.90;;;;;;5056173;28;20116;-70
2021/12/21 09:56:29;;;;;;;22.80;11.82;;;-3.50;99.90;;;;;;5057112;28;20075;-69
2021/12/21 09:58:57;;;;;;;25.48;11.20;;;-3.60;99.90;;;;;;5057485;28;20487;-69
2021/12/21 10:01:25;;;;;;;25.95;11.32;;;-3.50;99.90;;;;;;5056941;28;20027;-70
2021/12/21 10:03:52;;;;;;;28.13;11.50;;;-3.40;99.90;;;;;;5056415;28;20405;-69
2021/12/21 10:06:20;;;;;;;30.67;12.93;;;-3.40;99.90;;;;;;5056408;28;20429;-69
2021/12/21 10:08:51;;;;;;;26.17;11.15;;;-3.30;99.90;;;;;;5057380;28;20020;-69
2021/12/21 10:11:22;;;;;;;27.25;11.63;;;-3.20;99.90;;;;;;5056353;28;20100;-69
2021/12/21 10:13:50;;;;;;;25.70;11.63;;;-3.20;99.90;;;;;;5056327;28;20109;-67
2021/12/21 10:16:22;;;;;;;30.33;12.02;;;-3.10;99.90;;;;;;5056347;28;20048;-68
2021/12/21 10:18:49;;;;;;;22.90;11.85;;;-3.00;99.90;;;;;;5059766;28;20079;-68
2021/12/21 10:21:17;;;;;;;29.42;12.00;;;-3.00;99.90;;;;;;5060732;28;20063;-68
2021/12/21 10:23:48;;;;;;;26.83;11.35;;;-2.90;99.90;;;;;;5061220;28;20029;-68
2021/12/21 10:26:25;;;;;;;25.45;11.98;;;-2.90;99.90;;;;;;5061799;28;20021;-68
2021/12/21 10:29:08;;;;;;;24.73;11.13;;;-2.90;99.90;;;;;;5061371;28;20028;-68
2021/12/21 10:31:40;;;;;;;26.17;12.70;;;-2.90;99.90;;;;;;5061381;28;20021;-68
2021/12/21 10:34:14;;;;;;;25.98;11.52;;;-2.90;99.90;;;;;;5061018;28;20117;-68
2021/12/21 10:36:49;;;;;;;22.77;11.10;;;-2.80;99.90;;;;;;5061137;28;20017;-68
2021/12/21 10:39:31;;;;;;;30.85;14.55;;;-2.80;99.90;;;;;;5061481;28;20025;-68
2021/12/21 10:42:04;;;;;;;33.78;14.43;;;-2.80;99.90;;;;;;5060210;28;20021;-68
2021/12/21 10:44:32;;;;;;;26.67;12.30;;;-2.80;99.90;;;;;;5060219;28;20479;-68
2021/12/21 10:47:00;;;;;;;33.25;14.85;;;-2.80;99.90;;;;;;5059948;28;20098;-69
2021/12/21 10:49:28;;;;;;;40.97;18.15;;;-2.80;99.90;;;;;;5059153;28;20028;-67
2021/12/21 10:52:07;;;;;;;25.83;12.75;;;-2.80;99.90;;;;;;5059857;28;20456;-68
2021/12/21 10:54:43;;;;;;;24.00;11.18;;;-2.80;99.90;;;;;;5059895;28;20025;-69
2021/12/21 10:57:29;;;;;;;23.10;11.13;;;-2.80;99.90;;;;;;5059668;28;20075;-68
2021/12/21 11:00:00;;;;;;;26.30;12.38;;;-2.70;99.90;;;;;;5059845;28;20053;-69
2021/12/21 11:02:32;;;;;;;21.98;11.63;;;-2.70;99.90;;;;;;5059653;28;20023;-68
2021/12/21 11:05:05;;;;;;;31.50;13.55;;;-2.70;99.90;;;;;;5061099;28;20055;-67
2021/12/21 11:10:17;;;;;;;29.02;14.13;;;-2.70;99.90;;;;;;5060416;28;20049;-68
2021/12/21 11:12:51;;;;;;;26.75;12.20;;;-2.70;99.90;;;;;;5060354;28;20032;-68
2021/12/21 11:15:29;;;;;;;23.85;11.82;;;-2.70;99.90;;;;;;5060456;28;20444;-68
2021/12/21 11:17:58;;;;;;;24.80;11.50;;;-2.60;99.90;;;;;;5060221;28;20025;-68
2021/12/21 11:20:26;;;;;;;27.58;12.25;;;-2.60;99.90;;;;;;5060434;28;20470;-68
2021/12/21 11:22:55;;;;;;;26.38;13.32;;;-2.60;99.90;;;;;;5060153;28;20024;-68
2021/12/21 11:25:24;;;;;;;23.73;12.32;;;-2.60;99.90;;;;;;5059215;28;20040;-68
2021/12/21 11:27:52;;;;;;;25.45;12.82;;;-2.60;99.90;;;;;;5058685;28;20096;-68
2021/12/21 11:30:27;;;;;;;24.42;12.02;;;-2.50;99.90;;;;;;5059077;28;20032;-68
2021/12/21 11:32:57;;;;;;;27.45;13.90;;;-2.50;99.90;;;;;;5058993;28;20020;-68
2021/12/21 11:38:00;;;;;;;23.15;11.73;;;-2.40;99.90;;;;;;5059013;28;20063;-69
2021/12/21 11:40:32;;;;;;;23.02;12.35;;;-2.40;99.90;;;;;;5058818;28;20025;-68
2021/12/21 11:43:15;;;;;;;23.38;11.23;;;-2.40;99.90;;;;;;5058837;28;20075;-68
2021/12/21 11:46:10;;;;;;;22.77;10.27;;;-2.40;99.90;;;;;;5059382;28;20022;-68
2021/12/21 11:48:52;;;;;;;28.50;12.02;;;-2.40;99.90;;;;;;5060000;28;20356;-68
2021/12/21 11:51:28;;;;;;;23.17;12.77;;;-2.30;99.90;;;;;;5075244;28;20064;-68
2021/12/21 11:53:57;;;;;;;25.98;13.15;;;-2.30;99.90;;;;;;5059664;28;20029;-68
2021/12/21 11:56:28;;;;;;;23.70;11.75;;;-2.30;99.90;;;;;;5059457;28;20052;-68
2021/12/21 11:58:59;;;;;;;21.90;10.82;;;-2.30;99.90;;;;;;5059561;28;20421;-68
2021/12/21 12:01:31;;;;;;;24.85;11.77;;;-2.30;99.90;;;;;;5059465;28;20147;-68
2021/12/21 12:04:08;;;;;;;24.50;11.82;;;-2.20;99.90;;;;;;5059606;28;20017;-69
2021/12/21 12:06:50;;;;;;;39.20;16.08;;;-2.20;99.90;;;;;;5059361;28;20114;-69
2021/12/21 12:09:31;;;;;;;42.00;16.42;;;-2.20;99.90;;;;;;5058376;28;20332;-69
2021/12/21 12:12:09;;;;;;;59.45;22.17;;;-2.20;99.90;;;;;;5058336;28;20036;-69
2021/12/21 12:14:37;;;;;;;30.70;13.50;;;-2.20;99.90;;;;;;5058274;28;20428;-69
2021/12/21 12:17:18;;;;;;;31.45;13.13;;;-2.20;99.90;;;;;;5058526;28;20035;-69
2021/12/21 12:19:55;;;;;;;28.80;13.70;;;-2.20;99.90;;;;;;5058224;28;20025;-68
2021/12/21 12:22:35;;;;;;;25.95;12.52;;;-2.20;99.90;;;;;;5058729;28;20405;-69
2021/12/21 12:25:06;;;;;;;35.90;12.93;;;-2.20;99.90;;;;;;5056946;28;20025;-68
2021/12/21 12:27:43;;;;;;;32.00;12.55;;;-2.10;99.90;;;;;;5058373;28;20074;-68
2021/12/21 12:30:16;;;;;;;46.63;14.10;;;-2.10;99.90;;;;;;5058708;28;20112;-68
2021/12/21 12:32:49;;;;;;;41.40;14.48;;;-2.00;99.90;;;;;;5058812;28;20024;-68
2021/12/21 12:35:19;;;;;;;61.13;14.52;;;-1.90;99.90;;;;;;5058741;28;20021;-68
2021/12/21 12:38:02;;;;;;;50.80;13.27;;;-1.80;99.90;;;;;;5058700;28;20029;-68
2021/12/21 12:40:44;;;;;;;57.00;13.07;;;-1.70;99.90;;;;;;5057778;28;20021;-68
2021/12/21 12:43:13;;;;;;;40.15;13.00;;;-1.70;99.90;;;;;;5059143;28;20110;-68
2021/12/21 12:45:49;;;;;;;36.28;12.80;;;-1.60;99.90;;;;;;5058549;28;20053;-68
2021/12/21 12:48:17;;;;;;;;;;;-1.60;99.90;;;;;;5058993;28;20029;-68
2021/12/21 12:50:46;;;;;;;28.35;10.95;;;-1.60;99.90;;;;;;5058093;28;19905;-68
2021/12/21 12:53:14;;;;;;;40.42;11.65;;;-1.50;99.90;;;;;;5057725;28;20430;-68
2021/12/21 12:55:58;;;;;;;39.38;12.80;;;-1.50;99.90;;;;;;5057147;28;20499;-68
2021/12/21 12:58:27;;;;;;;37.60;12.20;;;-1.50;99.90;;;;;;5058112;28;20021;-68
2021/12/21 13:01:03;;;;;;;37.80;13.05;;;-1.50;99.90;;;;;;5057375;28;20028;-68
2021/12/21 13:03:43;;;;;;;57.67;11.65;;;-1.50;99.90;;;;;;5057388;28;20033;-68
2021/12/21 13:06:20;;;;;;;56.13;11.50;;;-1.50;99.90;;;;;;5057317;28;20040;-68
2021/12/21 13:08:48;;;;;;;37.67;12.05;;;-1.40;99.90;;;;;;5057368;28;20021;-68
2021/12/21 13:11:22;;;;;;;33.05;10.90;;;-1.50;99.90;;;;;;5057722;28;20112;-68
2021/12/21 13:13:49;;;;;;;26.02;10.93;;;-1.50;99.90;;;;;;5058278;28;20025;-68
2021/12/21 13:16:20;;;;;;;23.77;11.45;;;-1.50;99.90;;;;;;5073609;28;20029;-68
2021/12/21 13:18:53;;;;;;;29.98;12.27;;;-1.60;99.90;;;;;;5057937;28;20303;-68
2021/12/21 13:21:26;;;;;;;24.45;11.80;;;-1.70;99.90;;;;;;5058016;28;20094;-68
2021/12/21 13:24:03;;;;;;;25.88;12.90;;;-1.70;99.90;;;;;;5057847;28;20025;-68
2021/12/21 13:26:37;;;;;;;;;;;-1.80;99.90;;;;;;5058898;28;20084;-68
2021/12/21 13:29:06;;;;;;;24.25;11.82;;;-1.90;99.90;;;;;;5057893;28;19963;-68
2021/12/21 13:31:35;;;;;;;26.77;13.27;;;-2.00;99.90;;;;;;5057756;28;20025;-68
2021/12/21 13:34:04;;;;;;;27.30;11.60;;;-2.00;99.90;;;;;;5056909;28;20029;-68
2021/12/21 13:36:41;;;;;;;27.52;13.25;;;-2.10;99.90;;;;;;5056723;28;20036;-68
2021/12/21 13:39:28;;;;;;;34.25;15.65;;;-2.20;99.90;;;;;;5056680;28;20056;-68
2021/12/21 13:41:57;;;;;;;27.73;13.85;;;-2.20;99.90;;;;;;5057005;28;20021;-67
2021/12/21 13:44:36;;;;;;;31.20;14.93;;;-2.20;99.90;;;;;;5057291;28;20028;-68
2021/12/21 13:47:19;;;;;;;28.58;14.13;;;-2.30;99.90;;;;;;5056657;28;20056;-68
2021/12/21 13:50:04;;;;;;;25.58;13.23;;;-2.30;99.90;;;;;;5057161;28;20024;-69
2021/12/21 13:52:36;;;;;;;27.73;13.65;;;-2.40;99.90;;;;;;5056269;28;20029;-68
2021/12/21 13:55:05;;;;;;;32.65;14.02;;;-2.40;99.90;;;;;;5056971;28;20045;-69
2021/12/21 13:57:34;;;;;;;27.05;13.10;;;-2.40;99.90;;;;;;5057449;28;20027;-68